Terminal Aerodrome Forecast
Issued by NWS Sterling, VA

Home | Current Version | Previous Version | Text Only | Print | Product List | Glossary On
Versions: 1 2 3 4 5 6 7 8 9 10 11 12 13 14 15 16 17 18 19 20 21 22
000
FTUS41 KLWX 060832 AAA
TAFIAD
TAF AMD
KIAD 060832Z 0609/0712 VRB04KT 6SM BR FEW090
      TEMPO 0610/0612 4SM BR
     FM061300 03005KT P6SM BKN070
     FM062000 08008KT P6SM VCSH BKN040
     FM070400 VRB04KT P6SM SCT030 BKN090
     FM070900 VRB03KT 5SM BR SCT015 BKN030=

USA.gov is the U.S. government's official web portal to all federal, state and local government web resources and services.